createdAt,value
2018-12-17T00:00:20.747Z,-0.61
2018-12-17T00:02:49.048Z,-0.67
2018-12-17T00:05:17.240Z,-0.52
2018-12-17T00:07:45.586Z,-0.50
2018-12-17T00:10:13.873Z,-0.51
2018-12-17T00:12:42.076Z,-0.45
2018-12-17T00:15:10.315Z,-0.43
2018-12-17T00:17:38.518Z,-0.51
2018-12-17T00:20:07.804Z,-0.48
2018-12-17T00:22:35.975Z,-0.46
2018-12-17T00:25:04.376Z,-0.52
2018-12-17T00:27:32.563Z,-0.53
2018-12-17T00:30:00.873Z,-0.60
2018-12-17T00:32:29.229Z,-0.61
2018-12-17T00:34:57.391Z,-0.52
2018-12-17T00:37:29.473Z,-0.46
2018-12-17T00:39:58.254Z,-0.40
2018-12-17T00:42:26.527Z,-0.52
2018-12-17T00:44:54.705Z,-0.43
2018-12-17T00:47:22.985Z,-0.45
2018-12-17T00:49:51.176Z,-0.42
2018-12-17T00:52:19.363Z,-0.41
2018-12-17T00:54:47.624Z,-0.54
2018-12-17T00:57:15.984Z,-0.45
2018-12-17T00:59:44.257Z,-0.43
2018-12-17T01:02:33.145Z,-0.33
2018-12-17T01:05:01.365Z,-0.35
2018-12-17T01:07:30.716Z,-0.32
2018-12-17T01:09:59.197Z,-0.32
2018-12-17T01:12:27.473Z,-0.43
2018-12-17T01:14:55.813Z,-0.41
2018-12-17T01:17:25.089Z,-0.32
2018-12-17T01:19:53.416Z,-0.37
2018-12-17T01:22:21.668Z,-0.39
2018-12-17T01:24:49.969Z,-0.43
2018-12-17T01:27:25.960Z,-0.40
2018-12-17T01:29:54.175Z,-0.40
2018-12-17T01:32:22.460Z,-0.32
2018-12-17T01:34:50.631Z,-0.51
2018-12-17T01:37:18.885Z,-0.39
2018-12-17T01:39:47.264Z,-0.33
2018-12-17T01:42:15.516Z,-0.28
2018-12-17T01:44:43.757Z,-0.25
2018-12-17T01:47:11.958Z,-0.25
2018-12-17T01:49:40.266Z,-0.24
2018-12-17T01:52:08.437Z,-0.24
2018-12-17T01:54:36.624Z,-0.30
2018-12-17T01:57:05.093Z,-0.38
2018-12-17T01:59:33.354Z,-0.32
2018-12-17T02:02:01.576Z,-0.22
2018-12-17T02:04:29.838Z,-0.38
2018-12-17T02:06:58.181Z,-0.31
2018-12-17T02:09:26.462Z,-0.41
2018-12-17T02:11:54.687Z,-0.43
2018-12-17T02:14:22.924Z,-0.31
2018-12-17T02:16:51.226Z,-0.27
2018-12-17T02:19:19.446Z,-0.31
2018-12-17T02:21:47.819Z,-0.30
2018-12-17T02:24:16.014Z,-0.21
2018-12-17T02:26:44.306Z,-0.27
2018-12-17T02:29:12.555Z,-0.20
2018-12-17T02:31:40.747Z,-0.21
2018-12-17T02:34:08.935Z,-0.22
2018-12-17T02:36:37.160Z,-0.29
2018-12-17T02:39:07.964Z,-0.26
2018-12-17T02:41:36.252Z,-0.29
2018-12-17T02:44:05.136Z,-0.19
2018-12-17T02:46:33.391Z,-0.24
2018-12-17T02:49:01.597Z,-0.21
2018-12-17T02:51:30.040Z,-0.32
2018-12-17T02:53:58.231Z,-0.23
2018-12-17T02:56:26.517Z,-0.25
2018-12-17T02:58:54.727Z,-0.23
2018-12-17T03:01:23.000Z,-0.19
2018-12-17T03:03:51.267Z,-0.25
2018-12-17T03:06:19.453Z,-0.22
2018-12-17T03:08:47.793Z,-0.23
2018-12-17T03:11:15.956Z,-0.35
2018-12-17T03:13:50.527Z,-0.31
2018-12-17T03:16:19.745Z,-0.26
2018-12-17T03:18:47.947Z,-0.23
2018-12-17T03:21:16.234Z,-0.22
2018-12-17T03:23:44.412Z,-0.31
2018-12-17T03:26:12.636Z,-0.36
2018-12-17T03:28:40.819Z,-0.35
2018-12-17T03:31:09.068Z,-0.31
2018-12-17T03:33:37.303Z,-0.35
2018-12-17T03:36:05.532Z,-0.29
2018-12-17T03:38:33.747Z,-0.28
2018-12-17T03:41:02.017Z,-0.33
2018-12-17T03:43:30.261Z,-0.36
2018-12-17T03:46:00.126Z,-0.31
2018-12-17T03:48:28.800Z,-0.33
2018-12-17T03:50:57.003Z,-0.30
2018-12-17T03:53:25.217Z,-0.20
2018-12-17T03:55:53.497Z,-0.24
2018-12-17T03:58:21.775Z,-0.23
2018-12-17T04:00:49.946Z,-0.21
2018-12-17T04:03:18.194Z,-0.30
2018-12-17T04:05:49.893Z,-0.21
2018-12-17T04:08:18.109Z,-0.24
2018-12-17T04:10:46.360Z,-0.36
2018-12-17T04:13:14.568Z,-0.38
2018-12-17T04:15:42.845Z,-0.32
2018-12-17T04:18:11.105Z,-0.35
2018-12-17T04:20:39.330Z,-0.33
2018-12-17T04:23:07.472Z,-0.29
2018-12-17T04:25:35.706Z,-0.25
2018-12-17T04:28:04.002Z,-0.17
2018-12-17T04:30:32.180Z,-0.25
2018-12-17T04:33:00.369Z,-0.21
2018-12-17T04:35:28.634Z,-0.26
2018-12-17T04:37:56.893Z,-0.26
2018-12-17T04:40:25.073Z,-0.44
2018-12-17T04:42:53.267Z,-0.33
2018-12-17T04:45:21.552Z,-0.27
2018-12-17T04:47:49.814Z,-0.22
2018-12-17T04:50:17.988Z,-0.24
2018-12-17T04:52:46.340Z,-0.33
2018-12-17T04:55:14.538Z,-0.27
2018-12-17T04:57:43.054Z,-0.23
2018-12-17T05:00:11.409Z,-0.19
2018-12-17T05:02:39.574Z,-0.23
2018-12-17T05:05:08.446Z,-0.21
2018-12-17T05:07:36.639Z,-0.19
2018-12-17T05:10:05.954Z,-0.20
2018-12-17T05:12:34.210Z,-0.12
2018-12-17T05:15:03.765Z,-0.09
2018-12-17T05:17:32.227Z,-0.22
2018-12-17T05:20:00.484Z,-0.24
2018-12-17T05:22:28.781Z,-0.20
2018-12-17T05:24:57.204Z,-0.23
2018-12-17T05:27:25.409Z,-0.24
2018-12-17T05:29:53.612Z,-0.19
2018-12-17T05:32:22.157Z,-0.24
2018-12-17T05:34:50.434Z,-0.23
2018-12-17T05:37:18.773Z,-0.21
2018-12-17T05:39:47.037Z,-0.12
2018-12-17T05:42:15.289Z,-0.11
2018-12-17T05:44:43.459Z,-0.19
2018-12-17T05:47:11.626Z,-0.19
2018-12-17T05:49:39.957Z,-0.16
2018-12-17T05:52:08.386Z,-0.13
2018-12-17T05:54:36.579Z,-0.14
2018-12-17T05:57:04.921Z,-0.12
2018-12-17T05:59:33.302Z,-0.22
2018-12-17T06:02:01.496Z,-0.16
2018-12-17T06:04:29.768Z,-0.07
2018-12-17T06:06:57.935Z,-0.12
2018-12-17T06:09:26.215Z,-0.17
2018-12-17T06:11:54.621Z,-0.15
2018-12-17T06:14:22.901Z,-0.11
2018-12-17T06:16:51.125Z,-0.11
2018-12-17T06:19:19.311Z,-0.16
2018-12-17T06:21:47.497Z,-0.18
2018-12-17T06:24:15.855Z,-0.08
2018-12-17T06:26:52.342Z,-0.13
2018-12-17T06:29:35.387Z,-0.06
2018-12-17T06:31:58.954Z,-0.11
2018-12-17T06:34:27.103Z,-0.04
2018-12-17T06:37:00.565Z,0.02
2018-12-17T06:39:28.777Z,0.06
2018-12-17T06:41:56.952Z,-0.01
2018-12-17T06:44:25.276Z,0.00
2018-12-17T06:46:53.612Z,-0.08
2018-12-17T06:49:21.830Z,-0.09
2018-12-17T06:51:51.115Z,-0.05
2018-12-17T06:54:20.892Z,-0.05
2018-12-17T06:56:49.064Z,-0.08
2018-12-17T06:59:17.421Z,-0.05
2018-12-17T07:01:46.184Z,-0.02
2018-12-17T07:04:14.467Z,0.08
2018-12-17T07:06:42.615Z,0.08
2018-12-17T07:09:13.758Z,0.08
2018-12-17T07:11:42.024Z,0.05
2018-12-17T07:14:10.196Z,0.05
2018-12-17T07:16:38.464Z,0.12
2018-12-17T07:19:06.660Z,0.10
2018-12-17T07:21:34.849Z,0.02
2018-12-17T07:24:03.039Z,-0.03
2018-12-17T07:26:31.282Z,0.11
2018-12-17T07:28:59.464Z,0.12
2018-12-17T07:31:27.594Z,0.20
2018-12-17T07:33:55.854Z,0.11
2018-12-17T07:36:24.149Z,0.16
2018-12-17T07:38:52.376Z,0.16
2018-12-17T07:41:20.586Z,0.20
2018-12-17T07:43:48.932Z,0.21
2018-12-17T07:46:17.255Z,0.20
2018-12-17T07:48:46.150Z,0.23
2018-12-17T07:51:14.329Z,0.24
2018-12-17T07:53:42.963Z,0.25
2018-12-17T07:56:11.299Z,0.25
2018-12-17T07:58:39.649Z,0.25
2018-12-17T08:01:07.892Z,0.34
2018-12-17T08:03:36.140Z,0.26
2018-12-17T08:06:04.584Z,0.23
2018-12-17T08:08:35.608Z,0.31
2018-12-17T08:11:03.151Z,0.30
2018-12-17T08:13:31.595Z,0.40
2018-12-17T08:15:59.889Z,0.30
2018-12-17T08:18:28.199Z,0.18
2018-12-17T08:20:57.539Z,0.18
2018-12-17T08:23:25.837Z,0.17
2018-12-17T08:25:54.123Z,0.15
2018-12-17T08:28:22.321Z,0.19
2018-12-17T08:30:50.472Z,0.19
2018-12-17T08:33:18.684Z,0.24
2018-12-17T08:35:47.085Z,0.18
2018-12-17T08:38:15.495Z,0.17
2018-12-17T08:40:43.670Z,0.20
2018-12-17T08:43:12.748Z,0.29
2018-12-17T08:45:41.040Z,0.18
2018-12-17T08:48:09.336Z,0.25
2018-12-17T08:50:37.724Z,0.26
2018-12-17T08:53:05.992Z,0.35
2018-12-17T08:55:34.340Z,0.30
2018-12-17T08:58:02.657Z,0.33
2018-12-17T09:00:30.827Z,0.37
2018-12-17T09:02:59.001Z,0.46
2018-12-17T09:05:27.172Z,0.36
2018-12-17T09:07:57.399Z,0.32
2018-12-17T09:13:25.851Z,0.40
2018-12-17T09:15:54.339Z,0.36
2018-12-17T09:18:25.390Z,0.48
2018-12-17T09:20:53.687Z,0.54
2018-12-17T09:23:21.869Z,0.36
2018-12-17T09:25:50.116Z,0.46
2018-12-17T09:28:18.466Z,0.58
2018-12-17T09:30:46.849Z,0.43
2018-12-17T09:33:15.110Z,0.64
2018-12-17T09:35:43.416Z,0.61
2018-12-17T09:38:11.627Z,0.61
2018-12-17T09:40:39.916Z,0.66
2018-12-17T09:43:08.436Z,0.60
2018-12-17T09:45:36.700Z,0.54
2018-12-17T09:48:05.034Z,0.65
2018-12-17T09:50:33.313Z,0.52
2018-12-17T09:53:01.468Z,0.52
2018-12-17T09:55:29.744Z,0.58
2018-12-17T09:57:58.693Z,0.58
2018-12-17T10:00:28.949Z,0.50
2018-12-17T10:02:57.338Z,0.60
2018-12-17T10:05:25.782Z,0.58
2018-12-17T10:07:53.979Z,0.58
2018-12-17T10:10:22.154Z,0.65
2018-12-17T10:12:50.352Z,0.59
2018-12-17T10:15:18.517Z,0.52
2018-12-17T10:17:46.887Z,0.58
2018-12-17T10:20:15.048Z,0.62
2018-12-17T10:22:43.222Z,0.73
2018-12-17T10:25:11.609Z,0.76
2018-12-17T10:27:39.851Z,0.70
2018-12-17T10:30:08.143Z,0.73
2018-12-17T10:32:36.562Z,0.75
2018-12-17T10:35:05.235Z,0.77
2018-12-17T10:37:33.453Z,0.82
2018-12-17T10:40:01.738Z,0.79
2018-12-17T10:42:29.949Z,0.80
2018-12-17T10:44:58.149Z,0.86
2018-12-17T10:47:26.459Z,0.92
2018-12-17T10:49:54.677Z,0.96
2018-12-17T10:52:22.949Z,0.97
2018-12-17T10:54:51.129Z,0.96
2018-12-17T10:57:19.340Z,1.02
2018-12-17T10:59:47.588Z,1.06
2018-12-17T11:02:20.852Z,1.06
2018-12-17T11:04:54.049Z,1.09
2018-12-17T11:07:22.259Z,1.13
2018-12-17T11:09:50.637Z,1.11
2018-12-17T11:12:20.071Z,1.13
2018-12-17T11:14:48.376Z,1.15
2018-12-17T11:17:16.560Z,1.15
2018-12-17T11:19:44.769Z,1.17
2018-12-17T11:22:13.069Z,1.20
2018-12-17T11:24:41.268Z,1.24
2018-12-17T11:27:09.477Z,1.21
2018-12-17T11:29:37.821Z,1.26
2018-12-17T11:32:11.574Z,1.24
2018-12-17T11:34:36.263Z,1.24
2018-12-17T11:37:04.603Z,1.34
2018-12-17T11:39:32.797Z,1.40
2018-12-17T11:42:01.056Z,1.38
2018-12-17T11:44:29.323Z,1.49
2018-12-17T11:46:57.530Z,1.41
2018-12-17T11:49:25.809Z,1.43
2018-12-17T11:51:54.152Z,1.42
2018-12-17T11:54:22.449Z,1.41
2018-12-17T11:58:12.008Z,1.43
2018-12-17T12:00:43.721Z,1.50
2018-12-17T12:03:12.019Z,1.50
2018-12-17T12:05:40.175Z,1.50
2018-12-17T12:08:08.406Z,1.58
2018-12-17T12:10:36.597Z,1.55
2018-12-17T12:13:04.956Z,1.67
2018-12-17T12:15:33.321Z,1.56
2018-12-17T12:18:01.496Z,1.54
2018-12-17T12:20:29.799Z,1.52
2018-12-17T12:22:58.150Z,1.58
2018-12-17T12:25:26.509Z,1.62
2018-12-17T12:27:54.764Z,1.69
2018-12-17T12:30:22.987Z,1.69
2018-12-17T12:32:51.155Z,1.71
2018-12-17T12:35:19.343Z,1.66
2018-12-17T12:37:47.584Z,1.71
2018-12-17T12:40:15.886Z,1.72
2018-12-17T12:42:51.223Z,1.78
2018-12-17T12:45:14.391Z,1.71
2018-12-17T12:47:42.564Z,1.74
2018-12-17T12:50:10.869Z,1.63
2018-12-17T12:52:39.228Z,1.66
2018-12-17T12:55:07.700Z,1.68
2018-12-17T12:57:35.950Z,1.69
2018-12-17T13:00:06.530Z,1.74
2018-12-17T13:02:40.634Z,1.78
2018-12-17T13:05:08.970Z,1.62
2018-12-17T13:07:37.160Z,1.67
2018-12-17T13:10:09.096Z,1.75
2018-12-17T13:12:37.327Z,1.71
2018-12-17T13:15:06.828Z,1.73
2018-12-17T13:17:35.043Z,1.75
2018-12-17T13:20:05.612Z,1.66
2018-12-17T13:22:34.490Z,1.72
2018-12-17T13:25:02.719Z,1.86
2018-12-17T13:27:30.947Z,1.72
2018-12-17T13:29:59.232Z,1.80
2018-12-17T13:32:27.501Z,1.83
2018-12-17T13:34:55.659Z,1.83
2018-12-17T13:37:23.921Z,1.89
2018-12-17T13:39:52.107Z,1.72
2018-12-17T13:42:20.301Z,1.87
2018-12-17T13:44:52.290Z,1.74
2018-12-17T13:47:20.475Z,1.76
2018-12-17T13:49:48.824Z,1.80
2018-12-17T13:52:22.391Z,1.79
2018-12-17T13:54:50.733Z,1.81
2018-12-17T13:57:18.981Z,1.79
2018-12-17T13:59:47.289Z,1.78
2018-12-17T14:02:15.625Z,1.81
2018-12-17T14:04:43.809Z,1.72
2018-12-17T14:07:12.024Z,1.68
2018-12-17T14:09:45.643Z,1.75
2018-12-17T14:12:13.812Z,1.78
2018-12-17T14:14:41.942Z,1.78
2018-12-17T14:17:15.424Z,1.67
2018-12-17T14:19:47.872Z,1.65
2018-12-17T14:22:16.058Z,1.72
2018-12-17T14:24:44.246Z,1.77
2018-12-17T14:27:12.565Z,1.75
2018-12-17T14:29:40.740Z,1.63
2018-12-17T14:32:08.981Z,1.69
2018-12-17T14:34:40.423Z,1.65
2018-12-17T14:37:08.678Z,1.63
2018-12-17T14:39:36.904Z,1.67
2018-12-17T14:42:05.236Z,1.71
2018-12-17T14:44:34.826Z,1.74
2018-12-17T14:47:03.659Z,1.75
2018-12-17T14:49:31.955Z,1.72
2018-12-17T14:52:00.112Z,1.74
2018-12-17T14:54:28.464Z,1.66
2018-12-17T14:56:56.664Z,1.67
2018-12-17T15:02:32.909Z,1.66
2018-12-17T15:05:02.107Z,1.64
2018-12-17T15:07:30.482Z,1.75
2018-12-17T15:09:59.155Z,1.69
2018-12-17T15:12:28.611Z,1.76
2018-12-17T15:14:57.206Z,1.67
2018-12-17T15:24:21.240Z,1.77
2018-12-17T15:26:49.573Z,1.77
2018-12-17T15:29:17.733Z,1.76
2018-12-17T15:31:45.968Z,1.83
2018-12-17T15:34:14.130Z,1.80
2018-12-17T15:36:42.479Z,1.75
2018-12-17T15:39:10.980Z,1.76
2018-12-17T15:41:39.234Z,1.82
2018-12-17T15:44:07.422Z,1.81
2018-12-17T15:46:35.703Z,1.85
2018-12-17T15:49:04.051Z,1.93
2018-12-17T15:51:32.974Z,1.94
2018-12-17T15:54:01.261Z,1.89
2018-12-17T15:56:29.464Z,1.85
2018-12-17T15:58:57.706Z,1.86
2018-12-17T16:01:28.085Z,1.88
2018-12-17T16:03:56.283Z,1.88
2018-12-17T16:06:24.505Z,1.86
2018-12-17T16:08:52.788Z,1.86
2018-12-17T16:11:20.948Z,1.93
2018-12-17T16:13:49.219Z,1.90
2018-12-17T16:16:17.685Z,1.86
2018-12-17T16:18:46.208Z,1.90
2018-12-17T16:21:14.441Z,1.95
2018-12-17T16:23:42.733Z,1.86
2018-12-17T16:26:11.017Z,1.97
2018-12-17T16:28:39.281Z,1.91
2018-12-17T16:31:07.486Z,2.10
2018-12-17T16:33:35.704Z,2.10
2018-12-17T16:36:04.066Z,2.07
2018-12-17T16:38:32.336Z,1.97
2018-12-17T16:41:01.080Z,2.01
2018-12-17T16:43:29.327Z,2.10
2018-12-17T16:45:57.894Z,2.19
2018-12-17T16:48:26.149Z,1.99
2018-12-17T16:50:54.463Z,1.99
2018-12-17T16:53:22.728Z,1.98
2018-12-17T16:55:51.049Z,1.95
2018-12-17T16:58:19.228Z,1.90
2018-12-17T17:00:49.146Z,2.02
2018-12-17T17:03:17.311Z,2.03
2018-12-17T17:05:45.590Z,1.97
2018-12-17T17:08:13.893Z,1.94
2018-12-17T17:10:42.173Z,1.99
2018-12-17T17:13:10.455Z,2.00
2018-12-17T17:15:45.126Z,2.02
2018-12-17T17:18:13.349Z,1.99
2018-12-17T17:20:42.320Z,2.03
2018-12-17T17:23:10.680Z,1.96
2018-12-17T17:25:38.970Z,1.94
2018-12-17T17:28:07.246Z,1.97
2018-12-17T17:30:35.537Z,1.99
2018-12-17T17:33:04.232Z,1.97
2018-12-17T17:35:33.933Z,1.99
2018-12-17T17:38:02.226Z,1.97
2018-12-17T17:40:30.449Z,1.95
2018-12-17T17:42:58.830Z,1.97
2018-12-17T17:45:27.105Z,1.98
2018-12-17T17:47:55.966Z,1.99
2018-12-17T17:50:24.314Z,2.04
2018-12-17T17:52:52.497Z,2.00
2018-12-17T17:55:20.694Z,2.00
2018-12-17T17:57:48.878Z,2.05
2018-12-17T18:00:17.152Z,2.09
2018-12-17T18:02:45.353Z,2.07
2018-12-17T18:05:13.650Z,2.06
2018-12-17T18:07:41.965Z,2.03
2018-12-17T18:10:11.068Z,2.07
2018-12-17T18:12:40.072Z,2.04
2018-12-17T18:15:08.644Z,2.09
2018-12-17T18:17:36.938Z,2.07
2018-12-17T18:20:05.704Z,2.09
2018-12-17T18:22:33.868Z,2.08
2018-12-17T18:25:02.094Z,2.12
2018-12-17T18:27:30.586Z,2.08
2018-12-17T18:29:59.112Z,2.11
2018-12-17T18:32:27.389Z,2.13
2018-12-17T18:34:55.606Z,2.09
2018-12-17T18:37:25.117Z,2.11
2018-12-17T18:39:53.693Z,2.14
2018-12-17T18:42:23.406Z,1.77
2018-12-17T19:05:22.283Z,2.19
2018-12-17T19:08:26.825Z,2.20
2018-12-17T19:10:56.029Z,2.24
2018-12-17T19:13:30.996Z,2.24
2018-12-17T19:15:59.255Z,2.24
2018-12-17T19:18:29.064Z,2.28
2018-12-17T19:20:57.340Z,2.29
2018-12-17T19:23:25.620Z,2.27
2018-12-17T19:25:53.877Z,2.22
2018-12-17T19:28:35.699Z,2.29
2018-12-17T19:31:18.668Z,2.36
2018-12-17T19:34:35.630Z,2.32
2018-12-17T19:37:04.363Z,2.29
2018-12-17T19:42:44.284Z,2.36
2018-12-17T19:47:58.877Z,2.36
2018-12-17T19:50:27.673Z,2.37
2018-12-17T19:56:03.624Z,2.41
2018-12-17T19:59:45.252Z,2.39
2018-12-17T20:02:13.604Z,2.40
2018-12-17T20:04:41.916Z,2.42
2018-12-17T20:07:14.037Z,2.43
2018-12-17T20:09:47.744Z,2.45
2018-12-17T20:12:16.081Z,2.44
2018-12-17T20:14:44.354Z,2.48
2018-12-17T20:17:12.752Z,2.48
2018-12-17T20:19:41.008Z,2.50
2018-12-17T20:22:09.424Z,2.53
2018-12-17T20:24:37.811Z,2.54
2018-12-17T20:27:06.199Z,2.56
2018-12-17T20:29:34.452Z,2.55
2018-12-17T20:32:03.082Z,2.58
2018-12-17T20:40:40.836Z,2.64
2018-12-17T20:47:02.090Z,2.65
2018-12-17T20:49:30.325Z,2.70
2018-12-17T20:51:59.758Z,2.72
2018-12-17T20:54:48.382Z,2.70
2018-12-17T20:57:29.186Z,2.65
2018-12-17T21:03:02.958Z,2.79
2018-12-17T21:05:36.900Z,2.78
2018-12-17T21:11:04.935Z,2.86
2018-12-17T21:13:49.512Z,2.86
2018-12-17T21:16:19.296Z,2.81
2018-12-17T21:18:47.865Z,2.89
2018-12-17T21:24:36.240Z,2.92
2018-12-17T21:27:10.332Z,2.94
2018-12-17T21:29:38.668Z,2.96
2018-12-17T21:32:08.146Z,2.98
2018-12-17T21:34:36.646Z,2.98
2018-12-17T21:37:18.821Z,2.98
2018-12-17T21:39:47.397Z,2.99
2018-12-17T21:48:24.508Z,3.01
2018-12-17T21:54:50.994Z,3.05
2018-12-17T22:03:42.086Z,3.09
2018-12-17T22:13:11.593Z,3.14
2018-12-17T22:17:32.484Z,3.16
2018-12-17T22:20:18.343Z,3.15
2018-12-17T22:22:48.572Z,3.17
2018-12-17T22:34:18.276Z,3.28
2018-12-17T22:36:52.615Z,3.29
2018-12-17T22:39:29.286Z,3.28
2018-12-17T22:42:03.464Z,2.91
2018-12-17T22:44:42.210Z,3.34
2018-12-17T22:47:21.734Z,3.32
2018-12-17T22:49:52.460Z,3.34
2018-12-17T23:06:46.589Z,3.47
2018-12-17T23:28:55.603Z,3.58
2018-12-17T23:31:23.861Z,3.63
2018-12-17T23:33:58.406Z,3.62
2018-12-17T23:36:58.771Z,3.69
2018-12-17T23:39:31.435Z,3.64
2018-12-17T23:42:28.714Z,3.70
2018-12-17T23:45:03.431Z,3.69
2018-12-17T23:47:33.692Z,3.72
